sensor_id;sensor_type;location;lat;lon;timestamp;pressure;altitude;pressure_sealevel;temperature;humidity
54329;BME280;40710;51.120;13.136;2022-08-06T00:02:06;99939.50;;;21.84;59.60
54329;BME280;40710;51.120;13.136;2022-08-06T00:04:30;99947.22;;;21.77;60.03
54329;BME280;40710;51.120;13.136;2022-08-06T00:06:54;99947.50;;;21.55;60.95
54329;BME280;40710;51.120;13.136;2022-08-06T00:09:19;99955.44;;;21.76;60.75
54329;BME280;40710;51.120;13.136;2022-08-06T00:11:43;99945.69;;;21.84;61.14
54329;BME280;40710;51.120;13.136;2022-08-06T00:14:08;99941.59;;;21.61;60.97
54329;BME280;40710;51.120;13.136;2022-08-06T00:16:33;99946.94;;;21.61;60.85
54329;BME280;40710;51.120;13.136;2022-08-06T00:18:57;99934.72;;;21.78;60.29
54329;BME280;40710;51.120;13.136;2022-08-06T00:21:22;99939.66;;;21.73;59.86
54329;BME280;40710;51.120;13.136;2022-08-06T00:23:46;99937.41;;;21.78;60.27
54329;BME280;40710;51.120;13.136;2022-08-06T00:26:10;99927.25;;;21.81;60.55
54329;BME280;40710;51.120;13.136;2022-08-06T00:28:35;99919.78;;;21.65;61.14
54329;BME280;40710;51.120;13.136;2022-08-06T00:31:01;99913.44;;;21.66;61.25
54329;BME280;40710;51.120;13.136;2022-08-06T00:33:27;99926.09;;;21.64;61.71
54329;BME280;40710;51.120;13.136;2022-08-06T00:35:51;99920.75;;;21.64;61.33
54329;BME280;40710;51.120;13.136;2022-08-06T00:38:16;99917.78;;;22.45;59.19
54329;BME280;40710;51.120;13.136;2022-08-06T00:40:40;99918.94;;;22.80;60.69
54329;BME280;40710;51.120;13.136;2022-08-06T00:43:05;99926.53;;;21.89;59.29
54329;BME280;40710;51.120;13.136;2022-08-06T00:45:30;99931.59;;;21.63;61.16
54329;BME280;40710;51.120;13.136;2022-08-06T00:47:55;99932.44;;;21.63;60.30
54329;BME280;40710;51.120;13.136;2022-08-06T00:50:19;99937.22;;;21.60;60.96
54329;BME280;40710;51.120;13.136;2022-08-06T00:52:44;99931.72;;;21.61;61.00
54329;BME280;40710;51.120;13.136;2022-08-06T00:55:10;99938.38;;;21.67;60.52
54329;BME280;40710;51.120;13.136;2022-08-06T00:57:34;99946.91;;;21.51;61.14
54329;BME280;40710;51.120;13.136;2022-08-06T00:59:58;99949.94;;;21.37;61.76
54329;BME280;40710;51.120;13.136;2022-08-06T01:02:23;99957.84;;;21.38;62.09
54329;BME280;40710;51.120;13.136;2022-08-06T01:04:47;99956.91;;;21.49;61.82
54329;BME280;40710;51.120;13.136;2022-08-06T01:07:12;99963.31;;;21.37;61.88
54329;BME280;40710;51.120;13.136;2022-08-06T01:09:36;99961.19;;;21.30;60.66
54329;BME280;40710;51.120;13.136;2022-08-06T01:12:00;99963.00;;;21.20;60.14
54329;BME280;40710;51.120;13.136;2022-08-06T01:14:25;99958.28;;;21.43;59.16
54329;BME280;40710;51.120;13.136;2022-08-06T01:16:56;99970.94;;;21.01;59.43
54329;BME280;40710;51.120;13.136;2022-08-06T01:22:13;99969.53;;;21.06;57.47
54329;BME280;40710;51.120;13.136;2022-08-06T01:27:33;99969.47;;;20.87;57.17
54329;BME280;40710;51.120;13.136;2022-08-06T01:30:11;99969.03;;;20.91;56.98
54329;BME280;40710;51.120;13.136;2022-08-06T01:32:40;99969.84;;;21.13;56.21
54329;BME280;40710;51.120;13.136;2022-08-06T01:35:15;99982.28;;;20.93;57.14
54329;BME280;40710;51.120;13.136;2022-08-06T01:38:05;99983.66;;;21.18;56.63
54329;BME280;40710;51.120;13.136;2022-08-06T01:40:32;99974.00;;;21.27;55.79
54329;BME280;40710;51.120;13.136;2022-08-06T01:42:58;99987.19;;;21.19;56.26
54329;BME280;40710;51.120;13.136;2022-08-06T01:45:29;99993.31;;;20.78;56.84
54329;BME280;40710;51.120;13.136;2022-08-06T01:47:59;99990.84;;;20.87;56.08
54329;BME280;40710;51.120;13.136;2022-08-06T01:50:28;99997.75;;;20.68;56.69
54329;BME280;40710;51.120;13.136;2022-08-06T01:52:56;100007.25;;;20.82;56.42
54329;BME280;40710;51.120;13.136;2022-08-06T01:55:23;99999.09;;;20.84;56.16
54329;BME280;40710;51.120;13.136;2022-08-06T01:57:53;100001.38;;;20.88;56.21
54329;BME280;40710;51.120;13.136;2022-08-06T02:00:19;100006.59;;;20.90;56.56
54329;BME280;40710;51.120;13.136;2022-08-06T02:02:45;100019.75;;;21.03;55.83
54329;BME280;40710;51.120;13.136;2022-08-06T02:05:12;100033.97;;;20.82;55.82
54329;BME280;40710;51.120;13.136;2022-08-06T02:07:40;100039.03;;;20.85;56.18
54329;BME280;40710;51.120;13.136;2022-08-06T02:10:06;100034.16;;;20.90;56.37
54329;BME280;40710;51.120;13.136;2022-08-06T02:12:33;100036.16;;;20.98;56.24
54329;BME280;40710;51.120;13.136;2022-08-06T02:15:02;100040.56;;;20.78;56.65
54329;BME280;40710;51.120;13.136;2022-08-06T02:17:31;100041.50;;;20.77;56.11
54329;BME280;40710;51.120;13.136;2022-08-06T02:19:57;100043.19;;;20.57;55.67
54329;BME280;40710;51.120;13.136;2022-08-06T02:22:25;100037.97;;;20.55;55.43
54329;BME280;40710;51.120;13.136;2022-08-06T02:24:50;100047.22;;;20.51;55.84
54329;BME280;40710;51.120;13.136;2022-08-06T02:27:16;100051.75;;;20.39;55.58
54329;BME280;40710;51.120;13.136;2022-08-06T02:29:42;100050.56;;;20.32;55.87
54329;BME280;40710;51.120;13.136;2022-08-06T02:32:08;100062.03;;;20.23;55.63
54329;BME280;40710;51.120;13.136;2022-08-06T02:34:33;100050.75;;;20.40;54.88
54329;BME280;40710;51.120;13.136;2022-08-06T02:37:20;100054.03;;;20.23;55.41
54329;BME280;40710;51.120;13.136;2022-08-06T02:40:02;100062.94;;;20.33;54.69
54329;BME280;40710;51.120;13.136;2022-08-06T02:42:33;100061.88;;;20.25;54.70
54329;BME280;40710;51.120;13.136;2022-08-06T02:45:08;100051.41;;;19.89;54.48
54329;BME280;40710;51.120;13.136;2022-08-06T02:47:40;100052.09;;;20.14;53.93
54329;BME280;40710;51.120;13.136;2022-08-06T02:50:08;100064.00;;;19.98;54.38
54329;BME280;40710;51.120;13.136;2022-08-06T02:52:57;100070.13;;;19.78;54.78
54329;BME280;40710;51.120;13.136;2022-08-06T02:55:26;100071.28;;;19.96;54.16
54329;BME280;40710;51.120;13.136;2022-08-06T02:57:57;100071.44;;;19.83;54.46
54329;BME280;40710;51.120;13.136;2022-08-06T03:00:24;100065.22;;;20.06;53.14
54329;BME280;40710;51.120;13.136;2022-08-06T03:02:54;100065.81;;;20.09;53.14
54329;BME280;40710;51.120;13.136;2022-08-06T03:05:20;100077.63;;;19.84;52.46
54329;BME280;40710;51.120;13.136;2022-08-06T03:07:47;100080.03;;;19.64;52.83
54329;BME280;40710;51.120;13.136;2022-08-06T03:10:13;100085.84;;;19.70;52.74
54329;BME280;40710;51.120;13.136;2022-08-06T03:12:38;100090.22;;;19.71;52.87
54329;BME280;40710;51.120;13.136;2022-08-06T03:15:05;100089.03;;;19.63;53.53
54329;BME280;40710;51.120;13.136;2022-08-06T03:17:31;100095.78;;;19.56;53.91
54329;BME280;40710;51.120;13.136;2022-08-06T03:19:57;100103.06;;;19.54;54.08
54329;BME280;40710;51.120;13.136;2022-08-06T03:22:24;100101.97;;;19.68;53.72
54329;BME280;40710;51.120;13.136;2022-08-06T03:24:50;100111.22;;;19.75;53.75
54329;BME280;40710;51.120;13.136;2022-08-06T03:27:15;100124.66;;;19.62;54.33
54329;BME280;40710;51.120;13.136;2022-08-06T03:29:40;100112.16;;;19.86;53.66
54329;BME280;40710;51.120;13.136;2022-08-06T03:32:07;100104.78;;;19.89;52.95
54329;BME280;40710;51.120;13.136;2022-08-06T03:34:32;100105.75;;;19.77;52.77
54329;BME280;40710;51.120;13.136;2022-08-06T03:36:57;100129.00;;;19.52;53.09
54329;BME280;40710;51.120;13.136;2022-08-06T03:39:23;100119.56;;;19.48;53.38
54329;BME280;40710;51.120;13.136;2022-08-06T03:41:50;100122.69;;;19.42;53.38
54329;BME280;40710;51.120;13.136;2022-08-06T03:44:15;100127.94;;;19.55;53.27
54329;BME280;40710;51.120;13.136;2022-08-06T03:46:46;100137.34;;;19.36;53.18
54329;BME280;40710;51.120;13.136;2022-08-06T03:49:29;100138.28;;;19.35;53.09
54329;BME280;40710;51.120;13.136;2022-08-06T03:51:56;100151.16;;;19.53;52.80
54329;BME280;40710;51.120;13.136;2022-08-06T03:54:27;100151.50;;;19.25;53.36
54329;BME280;40710;51.120;13.136;2022-08-06T03:56:55;100156.22;;;19.22;53.35
54329;BME280;40710;51.120;13.136;2022-08-06T03:59:21;100167.38;;;19.38;52.97
54329;BME280;40710;51.120;13.136;2022-08-06T04:01:47;100170.81;;;19.05;53.36
54329;BME280;40710;51.120;13.136;2022-08-06T04:04:14;100162.38;;;19.11;53.19
54329;BME280;40710;51.120;13.136;2022-08-06T04:06:41;100166.47;;;19.04;53.34
54329;BME280;40710;51.120;13.136;2022-08-06T04:09:06;100162.22;;;19.01;53.52
54329;BME280;40710;51.120;13.136;2022-08-06T04:11:31;100162.31;;;19.00;53.54
54329;BME280;40710;51.120;13.136;2022-08-06T04:13:58;100164.66;;;19.16;52.93
54329;BME280;40710;51.120;13.136;2022-08-06T04:16:23;100163.16;;;19.00;52.94
54329;BME280;40710;51.120;13.136;2022-08-06T04:18:48;100172.63;;;19.04;53.56
54329;BME280;40710;51.120;13.136;2022-08-06T04:21:16;100165.34;;;18.95;54.24
54329;BME280;40710;51.120;13.136;2022-08-06T04:23:42;100176.00;;;18.95;53.62
54329;BME280;40710;51.120;13.136;2022-08-06T04:26:08;100184.59;;;18.75;54.40
54329;BME280;40710;51.120;13.136;2022-08-06T04:28:35;100189.91;;;18.75;54.27
54329;BME280;40710;51.120;13.136;2022-08-06T04:31:00;100184.38;;;18.78;54.15
54329;BME280;40710;51.120;13.136;2022-08-06T04:33:26;100193.19;;;18.78;54.11
54329;BME280;40710;51.120;13.136;2022-08-06T04:35:52;100189.44;;;18.94;53.73
54329;BME280;40710;51.120;13.136;2022-08-06T04:38:18;100198.78;;;18.99;53.40
54329;BME280;40710;51.120;13.136;2022-08-06T04:40:44;100197.22;;;19.08;53.37
54329;BME280;40710;51.120;13.136;2022-08-06T04:43:10;100213.09;;;19.10;53.16
54329;BME280;40710;51.120;13.136;2022-08-06T04:45:37;100208.94;;;19.05;53.41
54329;BME280;40710;51.120;13.136;2022-08-06T04:48:03;100204.72;;;19.03;53.24
54329;BME280;40710;51.120;13.136;2022-08-06T04:50:30;100208.00;;;19.06;53.29
54329;BME280;40710;51.120;13.136;2022-08-06T04:53:05;100217.13;;;18.91;53.59
54329;BME280;40710;51.120;13.136;2022-08-06T04:55:30;100206.44;;;19.04;53.23
54329;BME280;40710;51.120;13.136;2022-08-06T04:57:54;100220.19;;;18.98;53.21
54329;BME280;40710;51.120;13.136;2022-08-06T05:00:18;100223.47;;;19.01;53.52
54329;BME280;40710;51.120;13.136;2022-08-06T05:02:43;100225.09;;;19.15;52.91
54329;BME280;40710;51.120;13.136;2022-08-06T05:05:09;100232.28;;;18.91;53.36
54329;BME280;40710;51.120;13.136;2022-08-06T05:07:36;100230.38;;;18.80;53.88
54329;BME280;40710;51.120;13.136;2022-08-06T05:10:02;100230.75;;;18.99;53.55
54329;BME280;40710;51.120;13.136;2022-08-06T05:12:32;100228.28;;;19.20;53.08
54329;BME280;40710;51.120;13.136;2022-08-06T05:17:48;100245.81;;;19.12;53.48
54329;BME280;40710;51.120;13.136;2022-08-06T05:20:19;100246.25;;;19.05;53.76
54329;BME280;40710;51.120;13.136;2022-08-06T05:22:46;100240.31;;;19.02;53.90
54329;BME280;40710;51.120;13.136;2022-08-06T05:25:11;100256.50;;;19.23;53.35
54329;BME280;40710;51.120;13.136;2022-08-06T05:27:36;100258.66;;;19.18;53.62
54329;BME280;40710;51.120;13.136;2022-08-06T05:30:02;100258.91;;;19.15;53.37
54329;BME280;40710;51.120;13.136;2022-08-06T05:32:27;100259.41;;;19.20;53.64
54329;BME280;40710;51.120;13.136;2022-08-06T05:34:51;100265.47;;;18.98;54.30
54329;BME280;40710;51.120;13.136;2022-08-06T05:37:15;100275.50;;;18.94;54.38
54329;BME280;40710;51.120;13.136;2022-08-06T05:39:40;100268.66;;;19.27;53.84
54329;BME280;40710;51.120;13.136;2022-08-06T05:42:04;100274.03;;;18.77;54.65
54329;BME280;40710;51.120;13.136;2022-08-06T05:44:28;100273.50;;;19.09;54.13
54329;BME280;40710;51.120;13.136;2022-08-06T05:47:02;100281.47;;;18.98;54.52
54329;BME280;40710;51.120;13.136;2022-08-06T05:49:36;100280.88;;;19.05;54.64
54329;BME280;40710;51.120;13.136;2022-08-06T05:52:07;100275.41;;;19.20;53.94
54329;BME280;40710;51.120;13.136;2022-08-06T05:55:43;100282.00;;;19.14;54.56
54329;BME280;40710;51.120;13.136;2022-08-06T05:58:06;100280.03;;;19.29;54.14
54329;BME280;40710;51.120;13.136;2022-08-06T06:00:32;100287.97;;;19.18;54.23
54329;BME280;40710;51.120;13.136;2022-08-06T06:03:01;100273.06;;;19.51;53.23
54329;BME280;40710;51.120;13.136;2022-08-06T06:05:27;100282.28;;;19.46;53.63
54329;BME280;40710;51.120;13.136;2022-08-06T06:07:51;100290.50;;;19.19;54.06
54329;BME280;40710;51.120;13.136;2022-08-06T06:10:16;100298.06;;;19.25;54.04
54329;BME280;40710;51.120;13.136;2022-08-06T06:12:41;100293.91;;;19.45;53.67
54329;BME280;40710;51.120;13.136;2022-08-06T06:15:07;100296.00;;;19.53;53.21
54329;BME280;40710;51.120;13.136;2022-08-06T06:18:07;100305.53;;;19.44;53.63
54329;BME280;40710;51.120;13.136;2022-08-06T06:23:17;100292.66;;;19.74;52.72
54329;BME280;40710;51.120;13.136;2022-08-06T06:28:33;100309.34;;;19.53;52.75
54329;BME280;40710;51.120;13.136;2022-08-06T06:34:08;100304.25;;;20.08;51.75
54329;BME280;40710;51.120;13.136;2022-08-06T06:37:03;100303.78;;;20.37;51.26
54329;BME280;40710;51.120;13.136;2022-08-06T06:39:45;100289.38;;;23.82;43.55
54329;BME280;40710;51.120;13.136;2022-08-06T06:42:17;100292.78;;;23.15;44.13
54329;BME280;40710;51.120;13.136;2022-08-06T06:44:45;100324.19;;;20.61;49.88
54329;BME280;40710;51.120;13.136;2022-08-06T06:47:19;100336.28;;;20.19;50.35
54329;BME280;40710;51.120;13.136;2022-08-06T06:49:52;100335.22;;;20.22;50.59
54329;BME280;40710;51.120;13.136;2022-08-06T06:52:26;100338.97;;;20.42;50.70
54329;BME280;40710;51.120;13.136;2022-08-06T06:55:06;100333.84;;;19.94;52.01
54329;BME280;40710;51.120;13.136;2022-08-06T06:57:37;100340.22;;;20.27;51.83
54329;BME280;40710;51.120;13.136;2022-08-06T07:00:04;100332.81;;;20.42;50.35
54329;BME280;40710;51.120;13.136;2022-08-06T07:02:32;100336.03;;;20.00;51.25
54329;BME280;40710;51.120;13.136;2022-08-06T07:04:58;100337.66;;;20.25;51.09
54329;BME280;40710;51.120;13.136;2022-08-06T07:07:27;100326.25;;;20.34;51.01
54329;BME280;40710;51.120;13.136;2022-08-06T07:09:53;100328.22;;;20.77;50.22
54329;BME280;40710;51.120;13.136;2022-08-06T07:12:20;100322.56;;;21.03;50.13
54329;BME280;40710;51.120;13.136;2022-08-06T07:14:47;100340.19;;;20.49;50.55
54329;BME280;40710;51.120;13.136;2022-08-06T07:17:14;100328.56;;;20.50;49.36
54329;BME280;40710;51.120;13.136;2022-08-06T07:19:42;100316.53;;;20.90;49.13
54329;BME280;40710;51.120;13.136;2022-08-06T07:22:08;100318.09;;;21.04;48.63
54329;BME280;40710;51.120;13.136;2022-08-06T07:24:33;100318.75;;;21.17;48.39
54329;BME280;40710;51.120;13.136;2022-08-06T07:27:00;100318.50;;;21.20;48.30
54329;BME280;40710;51.120;13.136;2022-08-06T07:29:27;100320.53;;;21.28;46.91
54329;BME280;40710;51.120;13.136;2022-08-06T07:31:51;100321.31;;;21.19;47.16
54329;BME280;40710;51.120;13.136;2022-08-06T07:34:18;100312.16;;;21.32;46.65
54329;BME280;40710;51.120;13.136;2022-08-06T07:36:50;100311.28;;;22.06;45.53
54329;BME280;40710;51.120;13.136;2022-08-06T07:39:18;100315.44;;;22.20;45.42
54329;BME280;40710;51.120;13.136;2022-08-06T07:41:47;100312.31;;;22.15;45.45
54329;BME280;40710;51.120;13.136;2022-08-06T07:44:12;100312.44;;;22.35;44.87
54329;BME280;40710;51.120;13.136;2022-08-06T07:46:44;100324.78;;;22.05;44.64
54329;BME280;40710;51.120;13.136;2022-08-06T07:49:12;100318.63;;;22.14;44.62
54329;BME280;40710;51.120;13.136;2022-08-06T07:51:40;100329.09;;;22.17;45.28
54329;BME280;40710;51.120;13.136;2022-08-06T07:54:07;100323.97;;;22.56;45.22
54329;BME280;40710;51.120;13.136;2022-08-06T07:56:34;100319.47;;;23.17;44.57
54329;BME280;40710;51.120;13.136;2022-08-06T07:58:59;100307.75;;;23.67;43.12
54329;BME280;40710;51.120;13.136;2022-08-06T08:01:26;100305.13;;;24.14;41.99
54329;BME280;40710;51.120;13.136;2022-08-06T08:03:51;100308.94;;;24.49;41.15
54329;BME280;40710;51.120;13.136;2022-08-06T08:06:35;100315.66;;;23.78;41.61
54329;BME280;40710;51.120;13.136;2022-08-06T08:09:04;100317.66;;;23.56;41.87
54329;BME280;40710;51.120;13.136;2022-08-06T08:11:31;100317.50;;;23.38;42.01
54329;BME280;40710;51.120;13.136;2022-08-06T08:13:56;100315.38;;;23.71;41.80
54329;BME280;40710;51.120;13.136;2022-08-06T08:16:22;100321.13;;;24.06;41.31
54329;BME280;40710;51.120;13.136;2022-08-06T08:18:47;100314.44;;;24.67;39.75
54329;BME280;40710;51.120;13.136;2022-08-06T08:21:12;100325.41;;;23.99;39.70
54329;BME280;40710;51.120;13.136;2022-08-06T08:23:38;100323.50;;;24.19;39.83
54329;BME280;40710;51.120;13.136;2022-08-06T08:26:04;100323.13;;;23.65;39.91
54329;BME280;40710;51.120;13.136;2022-08-06T08:28:28;100325.53;;;23.38;40.48
54329;BME280;40710;51.120;13.136;2022-08-06T08:30:53;100319.78;;;23.53;39.91
54329;BME280;40710;51.120;13.136;2022-08-06T08:33:18;100325.34;;;24.18;39.84
54329;BME280;40710;51.120;13.136;2022-08-06T08:35:45;100307.06;;;25.51;37.75
54329;BME280;40710;51.120;13.136;2022-08-06T08:38:09;100310.66;;;25.77;36.48
54329;BME280;40710;51.120;13.136;2022-08-06T08:40:34;100307.22;;;25.67;35.11
54329;BME280;40710;51.120;13.136;2022-08-06T08:43:01;100314.31;;;24.86;36.64
54329;BME280;40710;51.120;13.136;2022-08-06T08:45:26;100327.41;;;25.17;37.01
54329;BME280;40710;51.120;13.136;2022-08-06T08:47:53;100317.00;;;26.20;35.58
54329;BME280;40710;51.120;13.136;2022-08-06T08:50:22;100323.28;;;26.03;35.46
54329;BME280;40710;51.120;13.136;2022-08-06T08:52:50;100311.91;;;26.44;35.30
54329;BME280;40710;51.120;13.136;2022-08-06T08:55:16;100319.09;;;26.35;34.57
54329;BME280;40710;51.120;13.136;2022-08-06T08:57:41;100305.34;;;26.89;33.00
54329;BME280;40710;51.120;13.136;2022-08-06T09:00:07;100310.84;;;26.63;32.98
54329;BME280;40710;51.120;13.136;2022-08-06T09:02:32;100309.69;;;27.49;32.57
54329;BME280;40710;51.120;13.136;2022-08-06T09:04:57;100303.00;;;26.94;32.75
54329;BME280;40710;51.120;13.136;2022-08-06T09:07:21;100311.66;;;27.22;33.04
54329;BME280;40710;51.120;13.136;2022-08-06T09:09:46;100310.63;;;26.98;32.62
54329;BME280;40710;51.120;13.136;2022-08-06T09:12:10;100319.19;;;26.51;34.20
54329;BME280;40710;51.120;13.136;2022-08-06T09:14:36;100328.66;;;26.21;34.37
54329;BME280;40710;51.120;13.136;2022-08-06T09:17:05;100309.69;;;27.65;32.69
54329;BME280;40710;51.120;13.136;2022-08-06T09:19:31;100297.78;;;29.03;30.06
54329;BME280;40710;51.120;13.136;2022-08-06T09:21:56;100305.69;;;28.81;29.58
54329;BME280;40710;51.120;13.136;2022-08-06T09:24:21;100299.59;;;28.40;28.89
54329;BME280;40710;51.120;13.136;2022-08-06T09:27:06;100304.91;;;29.50;28.45
54329;BME280;40710;51.120;13.136;2022-08-06T09:29:31;100307.75;;;29.57;29.21
54329;BME280;40710;51.120;13.136;2022-08-06T09:31:56;100302.88;;;29.29;29.78
54329;BME280;40710;51.120;13.136;2022-08-06T09:34:21;100301.91;;;29.45;29.38
54329;BME280;40710;51.120;13.136;2022-08-06T09:36:46;100306.06;;;29.79;27.17
54329;BME280;40710;51.120;13.136;2022-08-06T09:39:11;100299.16;;;30.06;26.63
54329;BME280;40710;51.120;13.136;2022-08-06T09:41:45;100298.63;;;30.56;26.86
54329;BME280;40710;51.120;13.136;2022-08-06T09:44:10;100297.66;;;30.93;25.51
54329;BME280;40710;51.120;13.136;2022-08-06T09:46:44;100307.84;;;29.87;27.13
54329;BME280;40710;51.120;13.136;2022-08-06T09:49:10;100305.59;;;30.80;26.53
54329;BME280;40710;51.120;13.136;2022-08-06T09:51:34;100294.16;;;32.20;24.59
54329;BME280;40710;51.120;13.136;2022-08-06T09:53:59;100289.94;;;32.53;23.83
54329;BME280;40710;51.120;13.136;2022-08-06T09:56:24;100302.06;;;32.15;24.31
54329;BME280;40710;51.120;13.136;2022-08-06T09:58:49;100290.94;;;31.32;24.16
54329;BME280;40710;51.120;13.136;2022-08-06T10:01:18;100313.97;;;29.11;26.52
54329;BME280;40710;51.120;13.136;2022-08-06T10:03:43;100312.97;;;29.12;26.67
54329;BME280;40710;51.120;13.136;2022-08-06T10:06:11;100311.00;;;29.75;26.40
54329;BME280;40710;51.120;13.136;2022-08-06T10:08:36;100288.53;;;31.01;25.10
54329;BME280;40710;51.120;13.136;2022-08-06T10:11:01;100291.00;;;31.39;24.42
54329;BME280;40710;51.120;13.136;2022-08-06T10:13:30;100290.00;;;31.46;24.63
54329;BME280;40710;51.120;13.136;2022-08-06T10:15:59;100285.94;;;31.57;24.39
54329;BME280;40710;51.120;13.136;2022-08-06T10:21:04;100298.59;;;29.58;25.19
54329;BME280;40710;51.120;13.136;2022-08-06T10:23:30;100287.28;;;29.92;24.72
54329;BME280;40710;51.120;13.136;2022-08-06T10:25:56;100283.94;;;31.01;24.06
54329;BME280;40710;51.120;13.136;2022-08-06T10:28:23;100283.78;;;31.24;23.96
54329;BME280;40710;51.120;13.136;2022-08-06T10:30:50;100274.34;;;31.48;23.80
54329;BME280;40710;51.120;13.136;2022-08-06T10:33:16;100270.84;;;32.04;23.80
54329;BME280;40710;51.120;13.136;2022-08-06T10:35:42;100276.91;;;30.92;24.93
54329;BME280;40710;51.120;13.136;2022-08-06T10:38:08;100282.28;;;31.00;24.78
54329;BME280;40710;51.120;13.136;2022-08-06T10:40:37;100272.63;;;30.61;24.37
54329;BME280;40710;51.120;13.136;2022-08-06T10:43:03;100277.97;;;30.40;24.52
54329;BME280;40710;51.120;13.136;2022-08-06T10:45:28;100270.63;;;31.50;23.74
54329;BME280;40710;51.120;13.136;2022-08-06T10:47:53;100271.88;;;32.45;22.40
54329;BME280;40710;51.120;13.136;2022-08-06T10:50:18;100257.28;;;33.41;21.73
54329;BME280;40710;51.120;13.136;2022-08-06T10:52:43;100250.16;;;33.74;22.01
54329;BME280;40710;51.120;13.136;2022-08-06T10:55:08;100263.28;;;32.96;21.92
54329;BME280;40710;51.120;13.136;2022-08-06T10:57:34;100270.28;;;32.16;22.53
54329;BME280;40710;51.120;13.136;2022-08-06T11:00:00;100266.88;;;33.04;21.92
54329;BME280;40710;51.120;13.136;2022-08-06T11:02:37;100257.72;;;33.38;22.10
54329;BME280;40710;51.120;13.136;2022-08-06T11:05:11;100253.50;;;33.35;21.99
54329;BME280;40710;51.120;13.136;2022-08-06T11:10:47;100263.63;;;32.25;22.50
54329;BME280;40710;51.120;13.136;2022-08-06T11:13:38;100261.00;;;32.03;22.56
54329;BME280;40710;51.120;13.136;2022-08-06T11:16:22;100252.56;;;32.27;22.95
54329;BME280;40710;51.120;13.136;2022-08-06T11:19:10;100246.56;;;31.68;22.71
54329;BME280;40710;51.120;13.136;2022-08-06T11:21:43;100249.16;;;31.33;23.60
54329;BME280;40710;51.120;13.136;2022-08-06T11:24:09;100245.41;;;31.91;23.10
54329;BME280;40710;51.120;13.136;2022-08-06T11:26:37;100243.50;;;32.13;23.05
54329;BME280;40710;51.120;13.136;2022-08-06T11:29:03;100237.50;;;32.79;22.23
54329;BME280;40710;51.120;13.136;2022-08-06T11:31:36;100240.56;;;32.63;21.28
54329;BME280;40710;51.120;13.136;2022-08-06T11:34:05;100242.22;;;32.15;21.70
54329;BME280;40710;51.120;13.136;2022-08-06T11:36:46;100238.28;;;31.55;22.26
54329;BME280;40710;51.120;13.136;2022-08-06T11:39:11;100240.41;;;31.88;22.36
54329;BME280;40710;51.120;13.136;2022-08-06T11:41:53;100239.38;;;31.60;22.80
54329;BME280;40710;51.120;13.136;2022-08-06T11:44:20;100233.53;;;32.27;21.41
54329;BME280;40710;51.120;13.136;2022-08-06T11:46:46;100228.63;;;32.09;22.50
54329;BME280;40710;51.120;13.136;2022-08-06T11:49:12;100227.50;;;33.00;21.66
54329;BME280;40710;51.120;13.136;2022-08-06T11:54:12;100239.59;;;32.29;22.56
54329;BME280;40710;51.120;13.136;2022-08-06T11:59:32;100243.16;;;31.66;23.50
54329;BME280;40710;51.120;13.136;2022-08-06T12:01:57;100245.59;;;32.11;23.80
54329;BME280;40710;51.120;13.136;2022-08-06T12:07:27;100226.41;;;31.62;21.77
54329;BME280;40710;51.120;13.136;2022-08-06T12:12:30;100227.09;;;31.71;22.02
54329;BME280;40710;51.120;13.136;2022-08-06T12:14:58;100235.03;;;31.44;22.52
54329;BME280;40710;51.120;13.136;2022-08-06T12:17:24;100228.22;;;31.77;22.59
54329;BME280;40710;51.120;13.136;2022-08-06T12:19:51;100229.25;;;32.11;22.65
54329;BME280;40710;51.120;13.136;2022-08-06T12:22:18;100228.72;;;31.94;22.38
54329;BME280;40710;51.120;13.136;2022-08-06T12:24:43;100224.63;;;31.76;22.62
54329;BME280;40710;51.120;13.136;2022-08-06T12:27:10;100233.38;;;32.00;22.51
54329;BME280;40710;51.120;13.136;2022-08-06T12:29:35;100227.66;;;31.60;22.09
54329;BME280;40710;51.120;13.136;2022-08-06T12:32:00;100227.88;;;31.93;22.72
54329;BME280;40710;51.120;13.136;2022-08-06T12:34:26;100227.25;;;32.26;21.41
54329;BME280;40710;51.120;13.136;2022-08-06T12:36:51;100219.09;;;32.26;22.55
54329;BME280;40710;51.120;13.136;2022-08-06T12:39:15;100214.06;;;31.88;22.05
54329;BME280;40710;51.120;13.136;2022-08-06T12:41:41;100198.72;;;32.15;21.29
54329;BME280;40710;51.120;13.136;2022-08-06T12:44:05;100208.66;;;32.30;21.39
54329;BME280;40710;51.120;13.136;2022-08-06T12:46:30;100208.63;;;31.88;21.19
54329;BME280;40710;51.120;13.136;2022-08-06T12:48:54;100210.88;;;31.50;21.59
54329;BME280;40710;51.120;13.136;2022-08-06T12:51:19;100200.44;;;31.53;22.06
54329;BME280;40710;51.120;13.136;2022-08-06T12:53:48;100201.06;;;31.27;21.98
54329;BME280;40710;51.120;13.136;2022-08-06T12:56:15;100196.31;;;32.34;21.33
54329;BME280;40710;51.120;13.136;2022-08-06T12:58:40;100199.34;;;32.66;21.00
54329;BME280;40710;51.120;13.136;2022-08-06T13:01:07;100209.66;;;32.29;21.66
54329;BME280;40710;51.120;13.136;2022-08-06T13:03:34;100203.00;;;32.38;21.57
54329;BME280;40710;51.120;13.136;2022-08-06T13:06:01;100205.13;;;31.66;21.40
54329;BME280;40710;51.120;13.136;2022-08-06T13:08:26;100209.16;;;31.48;22.31
54329;BME280;40710;51.120;13.136;2022-08-06T13:10:53;100207.13;;;31.51;21.91
54329;BME280;40710;51.120;13.136;2022-08-06T13:13:18;100207.72;;;31.24;21.83
54329;BME280;40710;51.120;13.136;2022-08-06T13:15:59;100209.31;;;31.19;22.04
54329;BME280;40710;51.120;13.136;2022-08-06T13:18:23;100212.28;;;31.45;21.39